Time;durP1;ratioP1;P1;durP2;ratioP2;P2;SDS_P1;SDS_P2;PMS_P1;PMS_P2;Temp;Humidity;BMP_temperature;BMP_pressure;BME280_temperature;BME280_humidity;BME280_pressure;Samples;Min_cycle;Max_cycle;Signal;HPM_P1;HPM_P2
2022/06/30 00:02:22;;;;;;;9.77;8.87;;;;;;;20.67;84.83;100477.33;1746459;82;21018;-72
2022/06/30 00:04:48;;;;;;;10.40;9.40;;;;;;;20.65;84.75;100486.92;1723091;82;20984;-72
2022/06/30 00:07:17;;;;;;;11.13;10.03;;;;;;;20.58;84.82;100488.22;1748497;82;21522;-72
2022/06/30 00:09:45;;;;;;;10.30;9.30;;;;;;;20.52;84.91;100499.58;1710684;82;21407;-71
2022/06/30 00:12:12;;;;;;;10.87;9.77;;;;;;;20.44;85.12;100503.10;1718146;82;21241;-72
2022/06/30 00:14:39;;;;;;;10.93;9.83;;;;;;;20.39;85.11;100510.84;1744466;80;21464;-72
2022/06/30 00:17:07;;;;;;;10.93;9.80;;;;;;;20.30;85.18;100514.13;1718587;82;21113;-72
2022/06/30 00:19:36;;;;;;;11.30;10.20;;;;;;;20.26;85.37;100516.69;1748986;80;21249;-72
2022/06/30 00:22:10;;;;;;;11.50;10.43;;;;;;;20.19;85.53;100520.46;1717050;82;21051;-72
2022/06/30 00:24:40;;;;;;;10.77;9.70;;;;;;;20.14;85.79;100522.80;1726119;80;21055;-72
2022/06/30 00:27:11;;;;;;;10.15;9.13;;;;;;;20.14;85.97;100528.78;1772667;80;21023;-73
2022/06/30 00:29:38;;;;;;;10.97;9.57;;;;;;;20.12;86.17;100522.88;1749846;80;20951;-72
2022/06/30 00:32:09;;;;;;;10.53;9.43;;;;;;;20.10;86.34;100521.03;1720284;82;21023;-73
2022/06/30 00:34:41;;;;;;;10.17;9.17;;;;;;;20.06;86.65;100518.73;1748969;80;20991;-73
2022/06/30 00:37:10;;;;;;;10.33;9.33;;;;;;;20.00;87.07;100523.52;1704109;83;21214;-72
2022/06/30 00:39:50;;;;;;;11.08;9.93;;;;;;;19.97;87.51;100528.78;1742313;80;21015;-72
2022/06/30 00:42:16;;;;;;;10.20;9.20;;;;;;;19.96;87.83;100533.98;1749433;80;21073;-72
2022/06/30 00:44:45;;;;;;;10.77;9.53;;;;;;;19.95;87.98;100531.03;1720660;82;21042;-72
2022/06/30 00:47:12;;;;;;;11.27;10.00;;;;;;;19.96;88.06;100529.91;1744818;82;21065;-72
2022/06/30 00:49:40;;;;;;;10.50;9.10;;;;;;;19.96;88.07;100532.63;1741784;81;21562;-72
2022/06/30 00:52:08;;;;;;;9.67;8.00;;;;;;;19.95;88.08;100539.96;1720604;81;21075;-73
2022/06/30 00:54:34;;;;;;;10.37;9.33;;;;;;;19.96;88.08;100545.61;1741611;82;20963;-73
2022/06/30 00:57:01;;;;;;;9.30;8.40;;;;;;;19.95;88.02;100540.52;1717667;83;20964;-72
2022/06/30 00:59:29;;;;;;;10.93;9.57;;;;;;;19.94;87.99;100543.80;1744630;82;21085;-73
2022/06/30 01:01:55;;;;;;;11.53;9.17;;;;;;;19.93;88.00;100549.52;1738368;81;21209;-72
2022/06/30 01:04:23;;;;;;;11.33;9.50;;;;;;;19.93;87.97;100560.37;1718899;83;20965;-73
2022/06/30 01:07:27;;;;;;;9.85;8.85;;;;;;;19.91;88.01;100562.84;1744383;82;21618;-73
2022/06/30 01:12:47;;;;;;;9.10;8.20;;;;;;;19.91;87.79;100557.42;1744239;80;21509;-73
2022/06/30 01:15:21;;;;;;;9.70;8.80;;;;;;;19.76;88.02;100556.54;1716742;83;21177;-73
2022/06/30 01:17:49;;;;;;;9.30;8.30;;;;;;;19.67;88.40;100556.53;1744245;81;21006;-73
2022/06/30 01:20:17;;;;;;;10.33;8.60;;;;;;;19.61;88.63;100554.26;1716101;82;21008;-73
2022/06/30 01:22:43;;;;;;;8.33;7.43;;;;;;;19.56;88.83;100556.58;1746115;80;21038;-73
2022/06/30 01:25:10;;;;;;;11.57;8.47;;;;;;;19.53;89.02;100549.64;1718776;83;21023;-73
2022/06/30 01:27:37;;;;;;;9.87;8.23;;;;;;;19.47;89.11;100543.57;1742606;80;21759;-73
2022/06/30 01:30:04;;;;;;;8.43;7.63;;;;;;;19.43;89.20;100550.18;1718152;82;21020;-74
2022/06/30 01:32:31;;;;;;;8.50;7.63;;;;;;;19.40;89.29;100537.83;1711580;82;21660;-74
2022/06/30 01:34:59;;;;;;;8.50;7.40;;;;;;;19.39;89.39;100545.16;1720176;83;21008;-73
2022/06/30 01:37:26;;;;;;;8.53;7.33;;;;;;;19.40;89.38;100540.54;1718864;82;20983;-73
2022/06/30 01:39:52;;;;;;;9.97;7.70;;;;;;;19.36;89.38;100539.02;1743122;82;21107;-73
2022/06/30 01:42:20;;;;;;;9.00;7.57;;;;;;;19.34;89.44;100537.17;1720508;82;20995;-73
2022/06/30 01:44:47;;;;;;;9.17;7.63;;;;;;;19.32;89.47;100539.42;1744198;80;21133;-73
2022/06/30 01:47:13;;;;;;;8.30;7.37;;;;;;;19.29;89.50;100533.84;1718575;83;21019;-74
2022/06/30 01:49:41;;;;;;;7.33;6.60;;;;;;;19.26;89.55;100531.20;1741110;81;21050;-72
2022/06/30 01:52:08;;;;;;;8.63;7.47;;;;;;;19.24;89.63;100541.54;1720565;82;21105;-72
2022/06/30 01:54:35;;;;;;;8.33;7.33;;;;;;;19.21;89.70;100533.48;1745011;81;21061;-71
2022/06/30 01:57:02;;;;;;;7.70;6.80;;;;;;;19.24;89.74;100544.25;1718305;83;21055;-72
2022/06/30 01:59:28;;;;;;;7.73;6.93;;;;;;;19.25;89.66;100540.45;1744118;82;21030;-72
2022/06/30 02:01:56;;;;;;;8.00;7.20;;;;;;;19.29;89.41;100535.98;1719554;82;21074;-72
2022/06/30 02:07:07;;;;;;;10.50;6.90;;;;;;;19.42;89.21;100539.68;1724077;82;21071;-72
2022/06/30 02:09:34;;;;;;;7.80;7.00;;;;;;;19.44;88.92;100532.80;1727521;82;21067;-72
2022/06/30 02:14:45;;;;;;;7.87;7.07;;;;;;;19.57;88.50;100530.28;1718126;82;20948;-72
2022/06/30 02:17:12;;;;;;;8.03;6.73;;;;;;;19.64;88.35;100537.40;1745507;82;21460;-72
2022/06/30 02:19:38;;;;;;;8.00;6.77;;;;;;;19.68;88.13;100535.67;1718909;83;21036;-72
2022/06/30 02:22:05;;;;;;;8.67;6.60;;;;;;;19.73;87.90;100543.62;1747757;82;21002;-72
2022/06/30 02:24:33;;;;;;;9.43;7.33;;;;;;;19.76;87.55;100541.63;1725650;82;21078;-73
2022/06/30 02:27:01;;;;;;;9.07;6.90;;;;;;;19.78;87.23;100540.77;1744695;80;21164;-73
2022/06/30 02:29:28;;;;;;;8.70;6.83;;;;;;;19.79;86.98;100541.00;1717989;83;21564;-72
2022/06/30 02:31:54;;;;;;;9.03;6.40;;;;;;;19.84;86.83;100545.45;1746134;80;21105;-72
2022/06/30 02:34:21;;;;;;;7.97;6.77;;;;;;;19.86;86.54;100545.94;1740631;82;20986;-72
2022/06/30 02:36:47;;;;;;;10.83;7.10;;;;;;;19.87;86.32;100546.99;1718351;82;21080;-72
2022/06/30 02:39:14;;;;;;;8.93;6.70;;;;;;;19.90;86.13;100547.68;1745473;81;21014;-72
2022/06/30 02:41:40;;;;;;;9.90;6.67;;;;;;;19.94;85.95;100544.33;1719507;83;21109;-72
2022/06/30 02:44:07;;;;;;;7.33;6.53;;;;;;;19.97;85.79;100540.42;1743670;82;21565;-73
2022/06/30 02:46:33;;;;;;;8.73;6.67;;;;;;;19.98;85.67;100548.02;1722179;82;21059;-72
2022/06/30 02:48:59;;;;;;;7.57;6.33;;;;;;;20.00;85.52;100551.19;1743995;81;21030;-72
2022/06/30 02:51:26;;;;;;;7.07;6.37;;;;;;;20.04;85.56;100545.36;1719071;83;21605;-72
2022/06/30 02:53:52;;;;;;;7.60;6.57;;;;;;;20.10;85.51;100546.79;1716245;80;21173;-72
2022/06/30 02:56:19;;;;;;;8.50;7.00;;;;;;;20.16;85.36;100541.44;1744634;80;21046;-72
2022/06/30 02:58:47;;;;;;;10.13;6.90;;;;;;;20.20;85.12;100547.81;1718303;83;21103;-72
2022/06/30 03:01:14;;;;;;;7.77;6.57;;;;;;;20.23;85.05;100543.09;1723193;83;21038;-72
2022/06/30 03:03:41;;;;;;;7.63;6.83;;;;;;;20.30;84.94;100547.50;1745472;81;20979;-72
2022/06/30 03:06:07;;;;;;;7.73;6.67;;;;;;;20.36;84.85;100551.61;1718479;83;21488;-73
2022/06/30 03:08:34;;;;;;;9.27;7.20;;;;;;;20.41;84.49;100553.37;1742057;80;21460;-72
2022/06/30 03:11:00;;;;;;;7.97;6.47;;;;;;;20.45;84.23;100550.23;1715877;83;21541;-72
2022/06/30 03:13:27;;;;;;;8.33;7.23;;;;;;;20.50;84.01;100547.90;1744949;82;21033;-72
2022/06/30 03:15:54;;;;;;;8.30;6.77;;;;;;;20.56;83.83;100558.28;1679294;83;21054;-72
2022/06/30 03:18:21;;;;;;;8.53;6.60;;;;;;;20.64;83.60;100562.11;1719335;82;21158;-72
2022/06/30 03:20:47;;;;;;;9.33;6.90;;;;;;;20.67;83.17;100559.31;1745359;82;21062;-72
2022/06/30 03:23:14;;;;;;;8.50;6.73;;;;;;;20.70;82.75;100557.31;1719303;83;21039;-72
2022/06/30 03:25:42;;;;;;;7.33;6.53;;;;;;;20.75;82.38;100560.62;1748255;80;20976;-72
2022/06/30 03:28:09;;;;;;;7.37;6.17;;;;;;;20.76;81.99;100552.73;1722464;82;21522;-72
2022/06/30 03:30:36;;;;;;;7.73;6.67;;;;;;;20.77;81.77;100550.81;1747672;82;21805;-73
2022/06/30 03:33:04;;;;;;;7.23;6.33;;;;;;;20.76;81.54;100559.52;1745286;82;21030;-72
2022/06/30 03:35:32;;;;;;;8.07;6.83;;;;;;;20.75;81.35;100561.98;1698063;84;20991;-72
2022/06/30 03:37:58;;;;;;;8.43;6.80;;;;;;;20.75;81.14;100562.55;1732504;81;21085;-72
2022/06/30 03:40:25;;;;;;;8.43;7.10;;;;;;;20.76;80.96;100566.31;1746935;82;21054;-72
2022/06/30 03:42:53;;;;;;;8.03;6.73;;;;;;;20.79;80.81;100567.55;1742858;82;21131;-72
2022/06/30 03:45:20;;;;;;;8.60;7.07;;;;;;;20.79;80.82;100558.84;1726202;83;21110;-72
2022/06/30 03:47:46;;;;;;;9.37;6.90;;;;;;;20.85;80.77;100557.55;1728168;82;21027;-73
2022/06/30 03:50:12;;;;;;;8.83;6.77;;;;;;;20.95;80.60;100556.95;1724731;81;21090;-72
2022/06/30 03:52:41;;;;;;;8.37;6.50;;;;;;;21.04;80.10;100559.07;1744730;80;20911;-73
2022/06/30 03:55:09;;;;;;;9.83;6.70;;;;;;;21.10;79.66;100563.77;1718298;83;21529;-71
2022/06/30 03:57:35;;;;;;;7.77;6.93;;;;;;;21.19;79.31;100574.82;1745752;80;21037;-71
2022/06/30 04:00:04;;;;;;;7.80;7.00;;;;;;;21.29;78.98;100578.52;1745579;80;21046;-71
2022/06/30 04:02:32;;;;;;;8.47;6.73;;;;;;;21.40;78.65;100586.31;1720380;83;21105;-71
2022/06/30 04:04:59;;;;;;;8.30;6.50;;;;;;;21.54;78.25;100584.13;1748442;82;21514;-72
2022/06/30 04:07:25;;;;;;;7.33;6.13;;;;;;;21.65;77.57;100590.79;1721947;83;21153;-72
2022/06/30 04:09:51;;;;;;;8.00;6.30;;;;;;;21.72;76.95;100576.67;1752652;80;21077;-72
2022/06/30 04:12:18;;;;;;;7.73;6.60;;;;;;;21.74;76.52;100583.34;1774084;80;21043;-72
2022/06/30 04:14:46;;;;;;;7.07;6.00;;;;;;;21.77;76.02;100576.45;1774474;80;20996;-72
2022/06/30 04:17:12;;;;;;;7.87;5.80;;;;;;;21.82;75.74;100576.84;1770844;80;21075;-72
2022/06/30 04:19:39;;;;;;;7.80;6.40;;;;;;;21.83;75.32;100576.48;1750026;80;21141;-72
2022/06/30 04:22:06;;;;;;;6.43;5.83;;;;;;;21.88;75.02;100582.28;1759231;80;21004;-73
2022/06/30 04:24:32;;;;;;;9.37;6.40;;;;;;;21.92;75.27;100577.80;1774081;80;21016;-72
2022/06/30 04:26:59;;;;;;;7.03;6.23;;;;;;;21.97;75.17;100578.93;1774347;80;20947;-72
2022/06/30 04:29:25;;;;;;;7.27;6.20;;;;;;;22.05;75.07;100579.44;1748656;80;21054;-72
2022/06/30 04:34:38;;;;;;;7.67;6.50;;;;;;;22.18;74.71;100582.47;1692970;84;21095;-72
2022/06/30 04:37:05;;;;;;;7.93;7.13;;;;;;;22.27;74.83;100585.09;1732162;82;21014;-72
2022/06/30 04:39:32;;;;;;;9.63;6.80;;;;;;;22.35;74.79;100588.88;1721698;82;21177;-72
2022/06/30 04:41:59;;;;;;;7.87;6.43;;;;;;;22.40;74.72;100590.00;1746945;82;21688;-72
2022/06/30 04:44:26;;;;;;;8.10;7.20;;;;;;;22.48;73.91;100599.45;1721110;83;22063;-71
2022/06/30 04:46:52;;;;;;;7.43;6.63;;;;;;;22.47;73.22;100598.41;1745536;82;21049;-71
2022/06/30 04:49:19;;;;;;;8.07;7.27;;;;;;;22.50;73.14;100599.10;1745145;80;20995;-71
2022/06/30 04:51:46;;;;;;;8.37;6.90;;;;;;;22.54;73.31;100590.52;1741474;82;21485;-72
2022/06/30 04:54:12;;;;;;;7.67;6.87;;;;;;;22.65;73.44;100588.94;1723566;81;21552;-71
2022/06/30 04:56:39;;;;;;;8.63;7.37;;;;;;;22.79;73.28;100590.55;1744938;82;21657;-71
2022/06/30 04:59:06;;;;;;;8.50;6.90;;;;;;;22.91;72.80;100589.20;1716339;82;21584;-71
2022/06/30 05:01:33;;;;;;;7.93;7.13;;;;;;;22.79;72.64;100592.70;1742197;82;21041;-72
2022/06/30 05:04:00;;;;;;;7.43;6.40;;;;;;;22.79;72.65;100589.19;1718510;83;21130;-72
2022/06/30 05:06:27;;;;;;;7.40;6.23;;;;;;;22.86;72.78;100597.59;1744455;81;21050;-71
2022/06/30 05:08:55;;;;;;;8.17;6.63;;;;;;;23.00;72.89;100599.47;1718042;82;21240;-71
2022/06/30 05:11:21;;;;;;;6.93;6.23;;;;;;;23.18;71.85;100600.02;1744901;82;20979;-72
2022/06/30 05:13:48;;;;;;;7.57;6.77;;;;;;;23.20;72.03;100609.20;1717654;83;21082;-71
2022/06/30 05:16:15;;;;;;;7.10;6.23;;;;;;;23.22;71.84;100601.49;1743750;82;21136;-72
2022/06/30 05:18:42;;;;;;;7.43;6.70;;;;;;;23.30;72.19;100603.33;1717451;82;21163;-72
2022/06/30 05:21:08;;;;;;;6.83;5.70;;;;;;;23.38;71.79;100607.84;1744623;82;21054;-72
2022/06/30 05:23:35;;;;;;;7.00;6.20;;;;;;;23.46;71.69;100606.95;1717196;83;21062;-72
2022/06/30 05:28:46;;;;;;;6.93;5.80;;;;;;;23.55;70.34;100603.50;1718671;83;21086;-73
2022/06/30 05:31:13;;;;;;;7.63;6.03;;;;;;;23.63;69.89;100604.53;1745733;80;21097;-73
2022/06/30 05:33:40;;;;;;;9.37;6.67;;;;;;;23.71;70.08;100609.64;1718778;83;21553;-73
2022/06/30 05:36:07;;;;;;;6.87;6.07;;;;;;;23.80;70.19;100611.67;1744932;82;21039;-74
2022/06/30 05:38:33;;;;;;;7.50;6.37;;;;;;;23.83;69.94;100611.78;1740389;82;21461;-73
2022/06/30 05:40:59;;;;;;;7.13;6.43;;;;;;;23.89;69.62;100610.98;1744925;80;21059;-71
2022/06/30 05:43:26;;;;;;;7.00;6.17;;;;;;;23.94;69.09;100611.29;1719714;82;21099;-71
2022/06/30 05:45:54;;;;;;;7.10;6.10;;;;;;;24.03;68.72;100606.49;1744993;81;21542;-71
2022/06/30 05:48:21;;;;;;;6.87;6.17;;;;;;;24.17;68.89;100607.45;1723117;82;21071;-72
2022/06/30 05:50:48;;;;;;;8.13;6.67;;;;;;;24.29;68.89;100599.22;1723282;82;20968;-73
2022/06/30 05:53:16;;;;;;;7.50;6.00;;;;;;;24.42;68.46;100602.72;1745809;81;21089;-72
2022/06/30 05:55:42;;;;;;;7.10;6.40;;;;;;;24.55;67.68;100593.31;1718627;82;21250;-72
2022/06/30 05:58:09;;;;;;;7.47;6.63;;;;;;;24.71;68.09;100601.50;1744083;80;21165;-72
2022/06/30 06:00:36;;;;;;;6.90;5.77;;;;;;;24.79;67.23;100595.88;1717954;82;21099;-73
2022/06/30 06:05:43;;;;;;;8.83;6.03;;;;;;;25.07;65.57;100596.92;1835300;76;26832;-72
2022/06/30 06:08:12;;;;;;;6.57;5.73;;;;;;;25.02;65.29;100600.15;1820535;77;20982;-71
2022/06/30 06:10:40;;;;;;;6.42;5.78;;;;;;;25.08;65.27;100595.80;1835557;77;21771;-72
2022/06/30 06:13:07;;;;;;;11.37;5.90;;;;;;;25.16;65.00;100592.88;1849074;77;20994;-72
2022/06/30 06:15:33;;;;;;;7.50;5.50;;;;;;;25.25;64.74;100589.39;1849235;77;20884;-73
2022/06/30 06:18:01;;;;;;;8.50;6.03;;;;;;;25.31;63.72;100589.92;1816645;79;21026;-72
2022/06/30 06:20:28;;;;;;;6.40;5.70;;;;;;;25.30;63.41;100591.62;1818405;77;21122;-71
2022/06/30 06:22:55;;;;;;;6.40;5.80;;;;;;;25.24;63.48;100593.86;1825476;77;21101;-72
2022/06/30 06:25:22;;;;;;;7.17;6.27;;;;;;;25.26;63.50;100597.02;1823749;77;21017;-72
2022/06/30 06:30:34;;;;;;;6.03;5.07;;;;;;;25.39;62.89;100590.86;1828344;77;21002;-73
2022/06/30 06:33:01;;;;;;;5.60;5.00;;;;;;;25.46;62.51;100590.44;1825684;76;21011;-72
2022/06/30 06:35:28;;;;;;;6.13;4.90;;;;;;;25.56;63.00;100588.30;1827611;77;21121;-72
2022/06/30 06:37:55;;;;;;;5.30;4.43;;;;;;;25.68;62.04;100596.39;1822118;77;20975;-71
2022/06/30 06:40:22;;;;;;;5.30;4.07;;;;;;;25.74;61.81;100589.48;1827670;76;20951;-72
2022/06/30 06:42:48;;;;;;;5.50;4.20;;;;;;;25.78;58.38;100595.81;1829575;77;20998;-74
2022/06/30 06:45:15;;;;;;;5.73;4.80;;;;;;;25.78;57.90;100598.55;1823458;76;20999;-73
2022/06/30 06:47:43;;;;;;;5.33;4.00;;;;;;;25.84;58.41;100597.16;1848429;77;21164;-71
2022/06/30 06:50:09;;;;;;;4.97;3.77;;;;;;;25.91;58.15;100596.51;1845294;77;20999;-71
2022/06/30 06:52:36;;;;;;;5.23;4.50;;;;;;;26.01;58.71;100597.30;1850996;76;21508;-71
2022/06/30 06:55:05;;;;;;;5.03;3.93;;;;;;;26.04;57.69;100588.95;1822554;78;21521;-71
2022/06/30 06:57:40;;;;;;;5.93;4.57;;;;;;;26.11;57.93;100589.08;1844189;77;21008;-71
2022/06/30 07:00:09;;;;;;;4.70;4.20;;;;;;;26.20;57.94;100592.39;1843761;77;21550;-70
2022/06/30 07:02:35;;;;;;;5.80;4.43;;;;;;;26.32;57.74;100589.47;1815780;77;21549;-71
2022/06/30 07:05:03;;;;;;;6.07;4.03;;;;;;;26.33;56.91;100584.23;1810479;79;21494;-72
2022/06/30 07:07:31;;;;;;;4.40;3.80;;;;;;;26.40;57.15;100582.98;1837859;77;21459;-72
2022/06/30 07:09:59;;;;;;;5.03;4.47;;;;;;;26.46;56.79;100579.96;1793489;77;20999;-72
2022/06/30 07:12:29;;;;;;;5.17;4.67;;;;;;;26.57;55.97;100585.06;1810959;79;21618;-72
2022/06/30 07:14:57;;;;;;;4.83;4.33;;;;;;;26.65;55.91;100588.12;1784421;79;20947;-73
2022/06/30 07:17:26;;;;;;;5.70;4.80;;;;;;;26.81;55.58;100581.16;1810312;79;20956;-73
2022/06/30 07:19:54;;;;;;;6.13;4.93;;;;;;;26.84;55.82;100581.80;1810374;77;21633;-73
2022/06/30 07:22:25;;;;;;;7.83;5.20;;;;;;;26.89;56.55;100582.28;1810496;77;20987;-72
2022/06/30 07:24:58;;;;;;;4.72;4.22;;;;;;;26.84;56.12;100583.16;1815642;77;21186;-72
2022/06/30 07:27:25;;;;;;;5.50;5.00;;;;;;;26.76;55.81;100576.79;1798778;77;21075;-72
2022/06/30 07:29:54;;;;;;;5.37;4.87;;;;;;;26.69;56.38;100583.52;1778704;78;20999;-72
2022/06/30 07:32:22;;;;;;;5.37;4.40;;;;;;;26.68;56.59;100587.40;1778199;79;21553;-72
2022/06/30 07:34:53;;;;;;;5.80;4.93;;;;;;;26.74;56.41;100585.94;1804191;78;21085;-72
2022/06/30 07:37:28;;;;;;;5.57;4.50;;;;;;;26.77;56.28;100579.73;1823480;78;21818;-72
2022/06/30 07:40:06;;;;;;;6.30;4.43;;;;;;;26.82;55.00;100582.77;1796203;78;21553;-73
2022/06/30 07:42:36;;;;;;;4.60;4.00;;;;;;;26.86;54.66;100586.34;1824784;78;20884;-71
2022/06/30 07:45:14;;;;;;;5.20;4.33;;;;;;;27.02;54.86;100587.00;1824779;78;20883;-73
2022/06/30 07:47:46;;;;;;;4.67;4.10;;;;;;;27.23;54.91;100589.87;1795947;78;21033;-73
2022/06/30 07:50:24;;;;;;;5.70;5.10;;;;;;;27.36;53.84;100596.14;1825174;78;21138;-73
2022/06/30 07:53:05;;;;;;;5.42;4.92;;;;;;;27.41;53.23;100590.13;1785856;80;20928;-72
2022/06/30 07:55:38;;;;;;;4.43;4.03;;;;;;;27.37;52.32;100591.44;1792820;80;21043;-72
2022/06/30 07:58:06;;;;;;;5.17;4.07;;;;;;;27.27;52.81;100587.97;1775160;80;21031;-72
2022/06/30 08:00:37;;;;;;;5.63;4.87;;;;;;;27.23;53.28;100588.50;1783782;78;21541;-74
2022/06/30 08:03:04;;;;;;;5.13;4.63;;;;;;;27.23;53.15;100589.29;1801433;78;21110;-73
2022/06/30 08:05:37;;;;;;;5.83;4.63;;;;;;;27.23;52.70;100582.44;1804313;77;21113;-73
2022/06/30 08:08:10;;;;;;;4.83;4.23;;;;;;;27.23;52.98;100587.13;1818642;77;21549;-72
2022/06/30 08:10:37;;;;;;;6.53;4.50;;;;;;;27.24;53.95;100579.89;1793137;78;21089;-72
2022/06/30 08:13:04;;;;;;;5.80;4.70;;;;;;;27.32;53.86;100582.97;1806895;77;20987;-73
2022/06/30 08:15:31;;;;;;;4.77;4.27;;;;;;;27.53;53.47;100580.30;1840379;75;21532;-72
2022/06/30 08:18:04;;;;;;;4.90;4.40;;;;;;;27.65;53.12;100580.08;1831044;77;21053;-74
2022/06/30 08:20:30;;;;;;;5.00;4.53;;;;;;;27.74;51.83;100583.34;1815820;77;21066;-77
2022/06/30 08:22:57;;;;;;;7.27;4.80;;;;;;;27.78;51.81;100581.45;1824895;76;21513;-73
2022/06/30 08:25:24;;;;;;;6.30;4.77;;;;;;;27.85;51.21;100586.83;1824390;76;20964;-72
2022/06/30 08:27:50;;;;;;;4.47;3.80;;;;;;;27.87;50.52;100585.85;1826304;77;21152;-72
2022/06/30 08:30:18;;;;;;;6.17;4.80;;;;;;;27.92;51.54;100585.53;1822717;77;21067;-73
2022/06/30 08:32:44;;;;;;;5.57;4.70;;;;;;;27.97;51.49;100584.62;1810838;77;21089;-72
2022/06/30 08:35:11;;;;;;;7.13;4.20;;;;;;;28.01;50.67;100583.29;1825839;77;21027;-72
2022/06/30 08:37:38;;;;;;;5.40;3.53;;;;;;;28.13;51.07;100588.51;1842952;77;21026;-73
2022/06/30 08:42:50;;;;;;;5.10;3.70;;;;;;;28.27;48.65;100579.06;1838314;77;21039;-73
2022/06/30 08:45:20;;;;;;;4.43;3.90;;;;;;;28.38;49.41;100576.42;1842788;77;21502;-72
2022/06/30 08:47:49;;;;;;;4.73;4.20;;;;;;;28.53;49.61;100578.76;1842737;77;21070;-72
2022/06/30 08:50:17;;;;;;;5.20;3.80;;;;;;;28.63;49.22;100575.31;1843271;77;20996;-72
2022/06/30 08:52:53;;;;;;;4.40;4.00;;;;;;;28.72;48.97;100577.73;1842395;77;21111;-72
2022/06/30 08:55:23;;;;;;;4.97;3.80;;;;;;;28.79;49.03;100567.38;1843151;77;21540;-71
2022/06/30 08:57:50;;;;;;;4.67;3.90;;;;;;;28.87;48.87;100575.90;1843017;77;21412;-72
2022/06/30 09:00:17;;;;;;;4.57;3.60;;;;;;;28.84;48.56;100578.81;1843204;77;21509;-72
2022/06/30 09:02:45;;;;;;;5.90;3.70;;;;;;;28.85;48.49;100585.09;1842794;77;20975;-72
2022/06/30 09:05:12;;;;;;;4.00;3.60;;;;;;;28.85;47.35;100580.98;1842737;77;21875;-72
2022/06/30 09:07:39;;;;;;;4.93;3.50;;;;;;;28.83;46.74;100586.87;1835458;77;21081;-71
2022/06/30 09:10:07;;;;;;;4.27;3.83;;;;;;;28.88;46.95;100592.00;1810286;77;21026;-72
2022/06/30 09:12:34;;;;;;;5.10;3.73;;;;;;;28.95;47.67;100581.64;1809721;79;21514;-72
2022/06/30 09:15:00;;;;;;;5.00;3.80;;;;;;;29.02;47.83;100573.47;1822963;77;21031;-74
2022/06/30 09:17:29;;;;;;;5.13;4.10;;;;;;;29.17;47.81;100575.16;1819231;77;21116;-72
2022/06/30 09:20:05;;;;;;;4.80;4.20;;;;;;;29.25;47.78;100591.70;1825646;77;21074;-71
2022/06/30 09:22:41;;;;;;;6.33;4.03;;;;;;;29.20;48.27;100579.89;1818123;77;21490;-72
2022/06/30 09:25:11;;;;;;;4.50;3.70;;;;;;;29.34;48.67;100586.06;1819165;77;21066;-72
2022/06/30 09:27:39;;;;;;;4.10;3.67;;;;;;;29.54;47.34;100581.64;1819279;77;22407;-72
2022/06/30 09:30:16;;;;;;;4.67;3.50;;;;;;;29.61;45.52;100585.84;1819343;77;21249;-73
2022/06/30 09:32:55;;;;;;;4.17;3.77;;;;;;;29.50;45.67;100585.76;1815532;77;21039;-73
2022/06/30 09:35:27;;;;;;;4.30;3.47;;;;;;;29.38;45.31;100583.33;1842816;77;21047;-72
2022/06/30 09:38:07;;;;;;;4.60;3.60;;;;;;;29.34;46.48;100585.27;1843689;77;21015;-72
2022/06/30 09:41:00;;;;;;;4.42;3.80;;;;;;;29.36;47.34;100584.31;1817877;77;21031;-72
2022/06/30 09:43:09;;;;;;;5.10;3.67;;;;;;;29.36;46.95;100576.84;1811992;77;21229;-72
2022/06/30 09:45:41;;;;;;;4.37;3.97;;;;;;;29.42;46.79;100578.06;1841477;77;20995;-72
2022/06/30 09:48:10;;;;;;;4.08;3.67;;;;;;;29.52;46.62;100572.41;1842835;77;21533;-71
2022/06/30 09:50:37;;;;;;;4.50;3.90;;;;;;;29.57;45.25;100577.53;1841322;77;21146;-72
2022/06/30 09:53:12;;;;;;;5.17;3.75;;;;;;;29.53;45.31;100571.82;1788803;78;21000;-70
2022/06/30 09:55:47;;;;;;;4.23;3.83;;;;;;;29.53;45.73;100575.36;1809750;79;21216;-70
2022/06/30 09:58:41;;;;;;;4.60;4.10;;;;;;;29.57;46.25;100573.41;1817217;77;21502;-71
2022/06/30 10:01:09;;;;;;;4.37;3.97;;;;;;;29.66;46.70;100572.50;1819087;77;21011;-71
2022/06/30 10:04:00;;;;;;;5.20;4.30;;;;;;;29.63;44.83;100566.39;1815609;77;21514;-71
2022/06/30 10:06:28;;;;;;;4.63;3.97;;;;;;;29.54;45.45;100567.30;1801875;77;21113;-70
2022/06/30 10:08:56;;;;;;;4.80;4.07;;;;;;;29.62;46.45;100565.41;1827402;77;22173;-72
2022/06/30 10:11:24;;;;;;;4.63;4.13;;;;;;;29.80;45.35;100559.97;1822816;77;20963;-70
2022/06/30 10:13:52;;;;;;;4.43;4.00;;;;;;;29.94;45.07;100572.39;1825773;77;21578;-71
2022/06/30 10:16:22;;;;;;;4.33;3.83;;;;;;;30.05;44.31;100571.07;1799521;77;21045;-71
2022/06/30 10:18:49;;;;;;;5.75;3.75;;;;;;;30.13;43.93;100568.52;1800347;78;21022;-71
2022/06/30 10:21:18;;;;;;;4.62;3.98;;;;;;;30.23;43.66;100565.63;1812320;77;21377;-71
2022/06/30 10:23:45;;;;;;;4.22;3.83;;;;;;;30.37;44.05;100567.82;1827862;77;21010;-72
2022/06/30 10:27:12;;;;;;;4.50;4.10;;;;;;;30.39;43.86;100571.55;1859414;77;21093;-72
2022/06/30 10:28:39;;;;;;;4.97;4.20;;;;;;;30.38;44.06;100563.88;1832722;77;21137;-70
2022/06/30 10:31:28;;;;;;;4.28;3.85;;;;;;;30.43;43.23;100568.20;1820329;78;21061;-74
2022/06/30 10:34:15;;;;;;;4.05;3.60;;;;;;;30.56;42.04;100567.23;1825929;77;21549;-72
2022/06/30 10:37:02;;;;;;;4.35;3.95;;;;;;;30.57;42.21;100568.23;1815709;77;21058;-72
2022/06/30 10:39:58;;;;;;;4.83;3.95;;;;;;;30.72;42.47;100562.70;1825626;77;21549;-71
2022/06/30 10:42:49;;;;;;;4.20;3.80;;;;;;;30.88;42.40;100563.72;1819939;77;21561;-71
2022/06/30 10:45:34;;;;;;;4.37;3.97;;;;;;;30.86;40.83;100566.86;1819443;77;21047;-72
2022/06/30 10:48:05;;;;;;;6.97;4.70;;;;;;;30.85;41.33;100563.91;1829387;77;21678;-73
2022/06/30 10:50:43;;;;;;;4.20;3.80;;;;;;;30.55;42.31;100560.94;1835923;77;21576;-72
2022/06/30 10:53:37;;;;;;;5.17;4.22;;;;;;;30.27;43.53;100565.03;1813173;77;21134;-71
2022/06/30 10:56:04;;;;;;;4.58;4.10;;;;;;;30.04;43.94;100567.53;1826793;77;21062;-70
2022/06/30 10:58:31;;;;;;;4.42;4.03;;;;;;;29.95;43.85;100558.84;1824716;77;21030;-70
2022/06/30 11:01:11;;;;;;;4.95;4.45;;;;;;;29.97;43.86;100559.23;1801107;78;21088;-71
2022/06/30 11:03:44;;;;;;;4.60;4.20;;;;;;;30.04;43.83;100556.52;1843224;77;21034;-72
2022/06/30 11:06:13;;;;;;;4.70;4.30;;;;;;;30.24;43.34;100545.14;1835855;77;21521;-72
2022/06/30 11:08:48;;;;;;;5.75;4.00;;;;;;;30.33;42.56;100548.31;1831064;76;20984;-71
2022/06/30 11:11:28;;;;;;;4.10;3.70;;;;;;;30.31;42.58;100546.55;1821412;77;21651;-71
2022/06/30 11:14:07;;;;;;;4.67;4.22;;;;;;;30.35;42.21;100544.59;1833165;76;21355;-71
2022/06/30 11:16:37;;;;;;;6.28;4.33;;;;;;;30.32;41.42;100541.23;1835859;77;21424;-72
2022/06/30 11:19:05;;;;;;;4.33;3.90;;;;;;;30.23;41.48;100540.83;1837637;77;21552;-71
2022/06/30 11:21:35;;;;;;;4.40;4.00;;;;;;;30.11;41.65;100544.13;1811841;77;21050;-71
2022/06/30 11:24:02;;;;;;;4.72;4.17;;;;;;;30.13;42.77;100540.38;1819913;77;21104;-70
2022/06/30 11:29:17;;;;;;;4.50;4.10;;;;;;;30.35;41.70;100540.45;1824380;77;22451;-71
2022/06/30 11:31:44;;;;;;;4.70;4.10;;;;;;;30.37;42.87;100540.27;1821718;77;20963;-71
2022/06/30 11:34:17;;;;;;;4.50;3.85;;;;;;;30.38;42.01;100539.67;1814895;77;21043;-71
2022/06/30 11:36:44;;;;;;;4.70;3.58;;;;;;;30.32;42.02;100534.34;1822061;77;21014;-73
2022/06/30 11:39:20;;;;;;;4.12;3.67;;;;;;;30.34;40.74;100531.41;1819613;77;21491;-70
2022/06/30 11:41:55;;;;;;;3.92;3.52;;;;;;;30.43;41.43;100532.97;1812935;77;21011;-71
2022/06/30 11:44:37;;;;;;;3.95;3.52;;;;;;;30.60;41.61;100532.17;1813066;77;20995;-71
2022/06/30 11:47:07;;;;;;;5.12;3.55;;;;;;;30.65;40.86;100531.02;1826783;77;20988;-70
2022/06/30 11:49:54;;;;;;;4.28;3.40;;;;;;;30.64;40.88;100524.71;1821461;77;21034;-72
2022/06/30 11:52:35;;;;;;;4.15;3.75;;;;;;;30.66;42.19;100525.69;1817213;77;21309;-71
2022/06/30 11:55:17;;;;;;;4.70;3.98;;;;;;;30.77;42.96;100529.27;1838605;77;21027;-71
2022/06/30 11:57:47;;;;;;;4.20;3.75;;;;;;;30.85;40.77;100532.20;1830088;77;21561;-72
2022/06/30 12:00:21;;;;;;;4.80;4.30;;;;;;;30.77;40.88;100534.78;1815420;77;20984;-72